createdAt,value
2018-07-25T00:00:45.830Z,945.62
2018-07-25T00:01:45.835Z,945.62
2018-07-25T00:02:45.829Z,945.63
2018-07-25T00:03:45.825Z,945.60
2018-07-25T00:04:45.827Z,945.57
2018-07-25T00:05:45.828Z,945.55
2018-07-25T00:06:45.821Z,945.58
2018-07-25T00:07:45.821Z,945.52
2018-07-25T00:08:45.819Z,945.53
2018-07-25T00:09:45.818Z,945.52
2018-07-25T00:10:45.819Z,945.52
2018-07-25T00:11:45.818Z,945.52
2018-07-25T00:12:45.816Z,945.50
2018-07-25T00:13:45.810Z,945.51
2018-07-25T00:14:45.815Z,945.52
2018-07-25T00:15:45.814Z,945.51
2018-07-25T00:16:45.809Z,945.52
2018-07-25T00:17:45.806Z,945.52
2018-07-25T00:18:45.805Z,945.53
2018-07-25T00:19:45.803Z,945.53
2018-07-25T00:20:45.801Z,945.57
2018-07-25T00:21:45.799Z,945.53
2018-07-25T00:22:45.799Z,945.54
2018-07-25T00:23:45.797Z,945.52
2018-07-25T00:24:45.797Z,945.54
2018-07-25T00:25:45.795Z,945.51
2018-07-25T00:26:45.793Z,945.53
2018-07-25T00:27:45.795Z,945.48
2018-07-25T00:28:45.793Z,945.46
2018-07-25T00:29:45.792Z,945.51
2018-07-25T00:30:45.790Z,945.44
2018-07-25T00:31:45.788Z,945.48
2018-07-25T00:32:45.787Z,945.49
2018-07-25T00:33:45.787Z,945.46
2018-07-25T00:34:45.783Z,945.51
2018-07-25T00:35:45.797Z,945.48
2018-07-25T00:36:45.783Z,945.51
2018-07-25T00:37:45.779Z,945.47
2018-07-25T00:38:45.780Z,945.49
2018-07-25T00:39:45.773Z,945.49
2018-07-25T00:40:45.777Z,945.47
2018-07-25T00:41:45.773Z,945.51
2018-07-25T00:42:45.769Z,945.47
2018-07-25T00:43:45.777Z,945.51
2018-07-25T00:44:45.765Z,945.51
2018-07-25T00:45:45.765Z,945.48
2018-07-25T00:46:45.763Z,945.45
2018-07-25T00:47:45.761Z,945.48
2018-07-25T00:48:45.761Z,945.46
2018-07-25T00:49:45.758Z,945.49
2018-07-25T00:50:45.755Z,945.45
2018-07-25T00:51:45.747Z,945.43
2018-07-25T00:52:45.753Z,945.44
2018-07-25T00:53:45.752Z,945.49
2018-07-25T00:54:45.752Z,945.48
2018-07-25T00:55:45.827Z,945.42
2018-07-25T00:56:45.748Z,945.47
2018-07-25T00:57:45.750Z,945.44
2018-07-25T00:58:45.745Z,945.47
2018-07-25T00:59:45.748Z,945.44
2018-07-25T01:00:45.741Z,945.43
2018-07-25T01:01:45.742Z,945.45
2018-07-25T01:02:45.740Z,945.44
2018-07-25T01:03:45.738Z,945.48
2018-07-25T01:04:45.737Z,945.45
2018-07-25T01:05:45.734Z,945.44
2018-07-25T01:06:45.733Z,945.42
2018-07-25T01:07:45.750Z,945.41
2018-07-25T01:08:45.728Z,945.42
2018-07-25T01:09:45.729Z,945.46
2018-07-25T01:10:45.725Z,945.46
2018-07-25T01:11:45.722Z,945.45
2018-07-25T01:12:45.720Z,945.40
2018-07-25T01:13:45.721Z,945.41
2018-07-25T01:14:45.716Z,945.42
2018-07-25T01:15:45.720Z,945.38
2018-07-25T01:16:45.714Z,945.40
2018-07-25T01:17:45.714Z,945.43
2018-07-25T01:18:45.711Z,945.40
2018-07-25T01:19:45.706Z,945.44
2018-07-25T01:20:45.700Z,945.46
2018-07-25T01:21:45.708Z,945.47
2018-07-25T01:22:45.706Z,945.48
2018-07-25T01:23:45.699Z,945.52
2018-07-25T01:24:45.703Z,945.53
2018-07-25T01:25:45.698Z,945.49
2018-07-25T01:26:45.697Z,945.50
2018-07-25T01:27:45.695Z,945.51
2018-07-25T01:28:45.692Z,945.51
2018-07-25T01:29:45.692Z,945.50
2018-07-25T01:30:45.692Z,945.51
2018-07-25T02:04:24.190Z,945.53
2018-07-25T02:05:24.166Z,945.55
2018-07-25T02:07:17.163Z,945.57
2018-07-25T02:08:17.174Z,945.56
2018-07-25T02:10:10.201Z,945.58
2018-07-25T02:11:10.172Z,945.62
2018-07-25T02:13:03.206Z,945.61
2018-07-25T02:14:03.182Z,945.63
2018-07-25T02:15:56.145Z,945.64
2018-07-25T02:16:56.126Z,945.69
2018-07-25T02:18:49.184Z,945.67
2018-07-25T02:19:49.180Z,945.67
2018-07-25T02:21:42.202Z,945.62
2018-07-25T02:22:42.180Z,945.67
2018-07-25T02:24:35.184Z,945.70
2018-07-25T02:25:35.164Z,945.67
2018-07-25T02:27:28.178Z,945.69
2018-07-25T02:28:28.161Z,945.70
2018-07-25T02:30:21.206Z,945.72
2018-07-25T02:31:21.186Z,945.73
2018-07-25T02:33:14.205Z,945.72
2018-07-25T02:34:14.186Z,945.67
2018-07-25T02:36:07.210Z,945.66
2018-07-25T02:37:07.187Z,945.70
2018-07-25T02:39:00.184Z,945.69
2018-07-25T02:40:00.168Z,945.74
2018-07-25T02:41:53.212Z,945.71
2018-07-25T02:42:53.191Z,945.72
2018-07-25T02:44:46.218Z,945.72
2018-07-25T02:45:46.192Z,945.73
2018-07-25T02:47:39.204Z,945.75
2018-07-25T02:48:39.195Z,945.75
2018-07-25T02:50:32.213Z,945.80
2018-07-25T02:51:32.188Z,945.79
2018-07-25T02:53:25.204Z,945.82
2018-07-25T02:54:25.199Z,945.87
2018-07-25T02:56:18.242Z,945.86
2018-07-25T02:57:18.197Z,945.85
2018-07-25T02:59:11.211Z,945.84
2018-07-25T03:00:11.200Z,945.84
2018-07-25T03:02:04.223Z,945.83
2018-07-25T03:03:04.213Z,945.82
2018-07-25T03:04:57.215Z,945.84
2018-07-25T03:05:57.200Z,945.82
2018-07-25T03:07:50.211Z,945.82
2018-07-25T03:08:50.247Z,945.85
2018-07-25T03:09:50.201Z,945.85
2018-07-25T03:10:50.199Z,945.86
2018-07-25T03:11:50.196Z,945.84
2018-07-25T03:12:50.214Z,945.85
2018-07-25T03:13:50.192Z,945.84
2018-07-25T03:14:50.191Z,945.87
2018-07-25T03:15:50.188Z,945.87
2018-07-25T03:16:50.194Z,945.90
2018-07-25T03:17:50.182Z,945.95
2018-07-25T03:18:50.182Z,945.91
2018-07-25T03:19:50.179Z,945.93
2018-07-25T03:20:50.175Z,945.90
2018-07-25T03:21:50.171Z,945.94
2018-07-25T03:22:50.185Z,945.88
2018-07-25T03:23:50.171Z,945.92
2018-07-25T03:24:50.168Z,945.88
2018-07-25T03:25:50.207Z,945.93
2018-07-25T03:26:50.155Z,945.95
2018-07-25T03:27:50.160Z,945.93
2018-07-25T03:28:50.163Z,945.93
2018-07-25T03:29:50.160Z,945.96
2018-07-25T03:30:50.155Z,945.98
2018-07-25T03:31:50.153Z,945.97
2018-07-25T03:32:50.160Z,946.00
2018-07-25T03:33:50.146Z,945.94
2018-07-25T03:34:50.139Z,945.98
2018-07-25T03:35:50.142Z,946.01
2018-07-25T03:36:50.144Z,945.98
2018-07-25T03:37:50.139Z,945.96
2018-07-25T03:38:50.136Z,945.98
2018-07-25T03:39:50.140Z,945.97
2018-07-25T03:40:50.132Z,945.98
2018-07-25T03:41:50.129Z,945.97
2018-07-25T03:42:50.148Z,946.00
2018-07-25T03:43:50.128Z,946.04
2018-07-25T03:44:50.131Z,946.04
2018-07-25T03:45:50.122Z,946.06
2018-07-25T03:46:50.120Z,946.05
2018-07-25T03:47:50.118Z,946.09
2018-07-25T03:48:50.117Z,946.08
2018-07-25T03:49:50.112Z,946.02
2018-07-25T03:50:50.114Z,946.06
2018-07-25T03:51:50.109Z,946.08
2018-07-25T03:52:50.107Z,946.06
2018-07-25T03:53:50.106Z,946.07
2018-07-25T03:54:50.102Z,946.08
2018-07-25T03:55:50.100Z,946.06
2018-07-25T03:56:50.099Z,946.08
2018-07-25T03:57:50.097Z,946.08
2018-07-25T03:58:50.097Z,946.06
2018-07-25T03:59:50.091Z,946.09
2018-07-25T04:00:50.092Z,946.10
2018-07-25T04:01:50.089Z,946.13
2018-07-25T04:02:50.085Z,946.12
2018-07-25T04:03:50.082Z,946.10
2018-07-25T04:04:50.082Z,946.09
2018-07-25T04:05:50.079Z,946.11
2018-07-25T04:06:50.076Z,946.09
2018-07-25T04:07:50.073Z,946.14
2018-07-25T04:08:50.074Z,946.11
2018-07-25T04:09:50.071Z,946.13
2018-07-25T04:10:50.071Z,946.13
2018-07-25T04:11:50.148Z,946.11
2018-07-25T04:12:50.064Z,946.10
2018-07-25T04:13:50.062Z,946.12
2018-07-25T04:14:50.066Z,946.16
2018-07-25T04:15:50.082Z,946.16
2018-07-25T04:16:50.085Z,946.18
2018-07-25T04:17:50.054Z,946.17
2018-07-25T04:18:50.056Z,946.23
2018-07-25T04:19:50.054Z,946.21
2018-07-25T04:20:50.054Z,946.25
2018-07-25T04:21:50.058Z,946.22
2018-07-25T04:22:50.044Z,946.23
2018-07-25T04:23:50.044Z,946.21
2018-07-25T04:24:50.135Z,946.20
2018-07-25T04:25:50.043Z,946.24
2018-07-25T04:26:50.043Z,946.23
2018-07-25T04:27:50.039Z,946.22
2018-07-25T04:28:50.036Z,946.25
2018-07-25T04:29:50.026Z,946.26
2018-07-25T04:30:50.032Z,946.24
2018-07-25T04:31:50.026Z,946.24
2018-07-25T04:32:50.030Z,946.25
2018-07-25T04:33:50.025Z,946.28
2018-07-25T04:34:50.092Z,946.25
2018-07-25T04:35:50.022Z,946.30
2018-07-25T04:36:50.026Z,946.31
2018-07-25T04:37:50.021Z,946.29
2018-07-25T04:38:50.019Z,946.34
2018-07-25T04:39:50.019Z,946.32
2018-07-25T04:40:50.016Z,946.34
2018-07-25T04:41:50.014Z,946.35
2018-07-25T04:42:50.056Z,946.34
2018-07-25T04:43:50.014Z,946.32
2018-07-25T04:44:50.011Z,946.35
2018-07-25T04:45:50.042Z,946.34
2018-07-25T04:46:50.084Z,946.34
2018-07-25T04:47:50.008Z,946.34
2018-07-25T04:48:50.008Z,946.37
2018-07-25T04:49:50.011Z,946.36
2018-07-25T04:50:50.003Z,946.39
2018-07-25T04:51:50.006Z,946.41
2018-07-25T04:52:50.005Z,946.40
2018-07-25T04:53:49.999Z,946.43
2018-07-25T04:54:50.000Z,946.43
2018-07-25T04:55:49.995Z,946.41
2018-07-25T04:56:49.997Z,946.43
2018-07-25T04:57:49.998Z,946.45
2018-07-25T04:58:49.991Z,946.43
2018-07-25T04:59:49.991Z,946.45
2018-07-25T05:00:49.990Z,946.45
2018-07-25T05:01:49.989Z,946.48
2018-07-25T05:02:49.986Z,946.48
2018-07-25T05:03:49.992Z,946.46
2018-07-25T05:04:49.985Z,946.48
2018-07-25T05:05:49.988Z,946.44
2018-07-25T05:06:49.984Z,946.47
2018-07-25T05:07:49.987Z,946.46
2018-07-25T05:08:49.985Z,946.46
2018-07-25T05:09:49.980Z,946.46
2018-07-25T05:10:49.981Z,946.48
2018-07-25T05:11:49.980Z,946.50
2018-07-25T05:12:49.977Z,946.48
2018-07-25T05:13:49.977Z,946.48
2018-07-25T05:14:49.977Z,946.50
2018-07-25T05:15:49.973Z,946.51
2018-07-25T05:16:49.976Z,946.52
2018-07-25T05:17:50.026Z,946.55
2018-07-25T05:18:49.960Z,946.55
2018-07-25T05:19:49.974Z,946.51
2018-07-25T05:20:49.973Z,946.54
2018-07-25T05:21:49.966Z,946.57
2018-07-25T05:22:49.972Z,946.57
2018-07-25T05:23:50.017Z,946.59
2018-07-25T05:24:49.977Z,946.62
2018-07-25T05:25:49.967Z,946.60
2018-07-25T05:26:49.973Z,946.62
2018-07-25T05:27:49.967Z,946.64
2018-07-25T05:28:49.968Z,946.70
2018-07-25T05:29:49.966Z,946.67
2018-07-25T05:30:49.968Z,946.68
2018-07-25T05:31:49.963Z,946.68
2018-07-25T05:32:49.967Z,946.70
2018-07-25T05:33:49.966Z,946.67
2018-07-25T05:34:49.966Z,946.65
2018-07-25T05:35:49.982Z,946.66
2018-07-25T05:36:49.965Z,946.64
2018-07-25T05:37:49.964Z,946.66
2018-07-25T05:38:49.964Z,946.65
2018-07-25T05:39:49.969Z,946.68
2018-07-25T05:40:49.963Z,946.70
2018-07-25T05:41:49.966Z,946.69
2018-07-25T05:42:49.964Z,946.69
2018-07-25T05:43:50.000Z,946.71
2018-07-25T05:44:49.966Z,946.69
2018-07-25T05:45:49.966Z,946.73
2018-07-25T05:46:49.973Z,946.72
2018-07-25T05:47:49.966Z,946.75
2018-07-25T05:48:49.964Z,946.73
2018-07-25T05:49:49.966Z,946.73
2018-07-25T05:50:49.965Z,946.77
2018-07-25T05:51:49.967Z,946.77
2018-07-25T05:52:49.963Z,946.76
2018-07-25T05:53:49.967Z,946.74
2018-07-25T05:54:49.971Z,946.76
2018-07-25T05:55:49.969Z,946.71
2018-07-25T05:56:50.023Z,946.75
2018-07-25T05:57:49.969Z,946.77
2018-07-25T05:58:49.980Z,946.74
2018-07-25T05:59:49.974Z,946.77
2018-07-25T06:00:49.970Z,946.79
2018-07-25T06:01:49.975Z,946.77
2018-07-25T06:02:50.003Z,946.80
2018-07-25T06:03:49.977Z,946.80
2018-07-25T06:04:49.977Z,946.82
2018-07-25T06:05:50.076Z,946.77
2018-07-25T06:06:49.981Z,946.81
2018-07-25T06:07:49.985Z,946.81
2018-07-25T06:08:49.973Z,946.82
2018-07-25T06:09:49.984Z,946.84
2018-07-25T06:10:49.988Z,946.80
2018-07-25T06:11:49.990Z,946.80
2018-07-25T06:12:50.014Z,946.81
2018-07-25T06:13:49.991Z,946.84
2018-07-25T06:14:49.993Z,946.86
2018-07-25T06:15:49.994Z,946.86
2018-07-25T06:16:50.021Z,946.87
2018-07-25T06:17:49.997Z,946.88
2018-07-25T06:18:49.999Z,946.90
2018-07-25T06:19:50.006Z,946.91
2018-07-25T06:20:50.004Z,946.95
2018-07-25T06:21:50.006Z,946.97
2018-07-25T06:22:50.008Z,946.95
2018-07-25T06:23:50.011Z,946.93
2018-07-25T06:24:50.011Z,946.93
2018-07-25T06:25:50.055Z,946.92
2018-07-25T06:26:50.020Z,946.94
2018-07-25T06:27:50.021Z,946.93
2018-07-25T06:28:50.023Z,946.92
2018-07-25T06:29:50.026Z,946.94
2018-07-25T06:30:50.026Z,946.93
2018-07-25T06:31:50.026Z,946.97
2018-07-25T06:32:50.022Z,947.00
2018-07-25T06:33:50.033Z,946.99
2018-07-25T06:34:50.098Z,946.95
2018-07-25T06:35:50.042Z,947.00
2018-07-25T06:36:50.044Z,946.98
2018-07-25T06:37:50.080Z,947.02
2018-07-25T06:38:50.064Z,946.97
2018-07-25T06:39:50.051Z,947.00
2018-07-25T06:40:50.052Z,946.99
2018-07-25T06:41:50.052Z,947.01
2018-07-25T06:42:50.055Z,947.01
2018-07-25T06:43:50.056Z,947.01
2018-07-25T06:44:50.066Z,946.99
2018-07-25T06:45:50.070Z,947.01
2018-07-25T06:46:50.069Z,947.02
2018-07-25T06:47:50.070Z,947.06
2018-07-25T06:48:50.076Z,947.06
2018-07-25T06:49:50.080Z,947.08
2018-07-25T06:50:50.098Z,947.07
2018-07-25T06:51:50.092Z,947.07
2018-07-25T06:52:50.090Z,947.07
2018-07-25T06:53:50.111Z,947.14
2018-07-25T06:54:50.099Z,947.07
2018-07-25T06:55:50.098Z,947.11
2018-07-25T06:56:50.096Z,947.12
2018-07-25T06:57:50.116Z,947.11
2018-07-25T06:58:50.119Z,947.12
2018-07-25T06:59:50.119Z,947.13
2018-07-25T07:00:50.119Z,947.14
2018-07-25T07:01:50.115Z,947.19
2018-07-25T07:02:50.120Z,947.16
2018-07-25T07:03:50.127Z,947.15
2018-07-25T07:04:50.128Z,947.19
2018-07-25T07:05:50.132Z,947.18
2018-07-25T07:06:50.177Z,947.20
2018-07-25T07:07:50.140Z,947.20
2018-07-25T07:08:50.139Z,947.18
2018-07-25T07:09:50.203Z,947.20
2018-07-25T07:10:50.163Z,947.22
2018-07-25T07:11:50.154Z,947.21
2018-07-25T07:12:50.157Z,947.20
2018-07-25T07:13:50.163Z,947.22
2018-07-25T07:14:50.168Z,947.27
2018-07-25T07:15:50.172Z,947.27
2018-07-25T07:16:50.173Z,947.24
2018-07-25T07:17:50.182Z,947.35
2018-07-25T07:18:50.188Z,947.42
2018-07-25T07:19:50.191Z,947.35
2018-07-25T07:20:50.195Z,947.44
2018-07-25T07:21:50.206Z,947.44
2018-07-25T07:22:50.207Z,947.44
2018-07-25T07:23:50.232Z,947.38
2018-07-25T07:24:50.226Z,947.44
2018-07-25T07:25:50.276Z,947.43
2018-07-25T07:26:50.246Z,947.47
2018-07-25T07:27:50.254Z,947.47
2018-07-25T07:28:50.259Z,947.42
2018-07-25T07:29:50.272Z,947.43
2018-07-25T07:30:50.298Z,947.44
2018-07-25T07:31:50.308Z,947.43
2018-07-25T07:32:50.304Z,947.41
2018-07-25T07:33:50.313Z,947.47
2018-07-25T07:34:50.340Z,947.43
2018-07-25T07:35:50.340Z,947.45
2018-07-25T07:36:50.347Z,947.44
2018-07-25T07:37:50.392Z,947.44
2018-07-25T07:38:50.369Z,947.45
2018-07-25T07:39:50.393Z,947.48
2018-07-25T07:40:50.407Z,947.48
2018-07-25T07:41:50.422Z,947.48
2018-07-25T07:42:50.452Z,947.41
2018-07-25T07:43:50.448Z,947.43
2018-07-25T07:44:50.459Z,947.40
2018-07-25T07:45:50.472Z,947.36
2018-07-25T07:46:50.490Z,947.38
2018-07-25T07:47:50.503Z,947.39
2018-07-25T07:48:50.517Z,947.36
2018-07-25T07:49:50.530Z,947.40
2018-07-25T07:50:50.555Z,947.41
2018-07-25T07:51:50.560Z,947.43
2018-07-25T07:52:50.576Z,947.43
2018-07-25T07:53:50.637Z,947.45
2018-07-25T07:54:50.609Z,947.44
2018-07-25T07:55:50.623Z,947.43
2018-07-25T07:56:50.638Z,947.43
2018-07-25T07:57:50.653Z,947.44
2018-07-25T07:58:50.670Z,947.40
2018-07-25T07:59:50.685Z,947.43
2018-07-25T08:00:50.701Z,947.44
2018-07-25T08:01:50.713Z,947.45
2018-07-25T08:02:50.730Z,947.46
2018-07-25T08:03:50.758Z,947.45
2018-07-25T08:04:50.793Z,947.45
2018-07-25T08:05:50.782Z,947.44
2018-07-25T08:06:50.795Z,947.46
2018-07-25T08:07:50.813Z,947.41
2018-07-25T08:08:50.832Z,947.44
2018-07-25T08:09:50.850Z,947.45
2018-07-25T08:10:50.861Z,947.42
2018-07-25T08:11:50.876Z,947.45
2018-07-25T08:12:50.891Z,947.46
2018-07-25T08:13:50.910Z,947.46
2018-07-25T08:14:50.929Z,947.51
2018-07-25T08:15:50.944Z,947.48
2018-07-25T08:16:50.962Z,947.50
2018-07-25T08:17:51.033Z,947.53
2018-07-25T08:18:50.997Z,947.52
2018-07-25T08:19:51.016Z,947.51
2018-07-25T08:20:51.032Z,947.49
2018-07-25T08:21:51.053Z,947.47
2018-07-25T08:22:51.070Z,947.50
2018-07-25T08:23:51.084Z,947.53
2018-07-25T08:24:51.104Z,947.49
2018-07-25T08:25:51.160Z,947.57
2018-07-25T08:26:51.142Z,947.55
2018-07-25T08:27:51.165Z,947.55
2018-07-25T08:28:51.175Z,947.56
2018-07-25T08:29:51.194Z,947.53
2018-07-25T08:30:51.209Z,947.59
2018-07-25T08:31:51.230Z,947.56
2018-07-25T08:32:51.249Z,947.60
2018-07-25T08:33:51.272Z,947.55
2018-07-25T08:34:51.322Z,947.53
2018-07-25T08:35:51.305Z,947.56
2018-07-25T08:36:51.325Z,947.62
2018-07-25T08:37:51.345Z,947.60
2018-07-25T08:38:51.360Z,947.64
2018-07-25T08:39:51.379Z,947.62
2018-07-25T08:40:51.400Z,947.60
2018-07-25T08:41:51.418Z,947.58
2018-07-25T08:42:51.435Z,947.56
2018-07-25T08:43:51.478Z,947.59
2018-07-25T08:44:51.483Z,947.59
2018-07-25T08:45:51.491Z,947.56
2018-07-25T08:46:51.525Z,947.55
2018-07-25T08:47:51.533Z,947.60
2018-07-25T08:48:51.550Z,947.60
2018-07-25T08:49:51.572Z,947.61
2018-07-25T08:50:51.590Z,947.62
2018-07-25T08:51:51.609Z,947.63
2018-07-25T08:52:51.674Z,947.61
2018-07-25T08:53:51.648Z,947.62
2018-07-25T08:54:51.664Z,947.61
2018-07-25T08:55:51.687Z,947.60
2018-07-25T08:56:51.706Z,947.64
2018-07-25T08:57:51.739Z,947.64
2018-07-25T08:58:51.744Z,947.68
2018-07-25T08:59:51.761Z,947.67
2018-07-25T09:00:51.780Z,947.71
2018-07-25T09:01:51.860Z,947.70
2018-07-25T09:02:51.820Z,947.62
2018-07-25T09:03:51.860Z,947.68
2018-07-25T09:04:51.858Z,947.69
2018-07-25T09:05:51.886Z,947.65
2018-07-25T09:06:51.902Z,947.67
2018-07-25T09:07:51.922Z,947.63
2018-07-25T09:08:51.946Z,947.64
2018-07-25T09:09:51.966Z,947.63
2018-07-25T09:10:52.005Z,947.64
2018-07-25T09:11:52.064Z,947.65
2018-07-25T09:12:52.078Z,947.62
2018-07-25T09:13:52.932Z,947.65
2018-07-25T09:14:52.092Z,947.68
2018-07-25T09:15:52.246Z,947.65
2018-07-25T09:16:53.252Z,947.65
2018-07-25T09:17:52.172Z,947.62
2018-07-25T09:18:52.198Z,947.61
2018-07-25T09:19:52.238Z,947.64
2018-07-25T09:20:52.201Z,947.63
2018-07-25T09:21:52.227Z,947.61
2018-07-25T09:22:52.256Z,947.62
2018-07-25T09:23:52.284Z,947.63
2018-07-25T09:24:52.292Z,947.58
2018-07-25T09:25:52.313Z,947.58
2018-07-25T09:26:52.339Z,947.58
2018-07-25T09:27:52.358Z,947.56
2018-07-25T09:28:52.380Z,947.56
2018-07-25T09:29:52.408Z,947.53
2018-07-25T09:30:52.455Z,947.52
2018-07-25T09:31:52.456Z,947.54
2018-07-25T09:32:52.468Z,947.55
2018-07-25T09:33:52.496Z,947.55
2018-07-25T09:34:52.510Z,947.56
2018-07-25T09:35:52.555Z,947.57
2018-07-25T09:36:52.555Z,947.60
2018-07-25T09:37:52.577Z,947.60
2018-07-25T09:38:52.595Z,947.65
2018-07-25T09:39:52.620Z,947.62
2018-07-25T09:40:52.705Z,947.57
2018-07-25T09:41:52.657Z,947.55
2018-07-25T09:42:52.679Z,947.59
2018-07-25T09:43:52.699Z,947.57
2018-07-25T09:44:52.722Z,947.58
2018-07-25T09:45:52.762Z,947.59
2018-07-25T09:46:52.793Z,947.60
2018-07-25T09:47:52.793Z,947.62
2018-07-25T09:48:52.803Z,947.57
2018-07-25T09:49:52.823Z,947.58
2018-07-25T09:50:52.876Z,947.57
2018-07-25T09:51:52.862Z,947.52
2018-07-25T09:52:52.986Z,947.52
2018-07-25T09:53:52.902Z,947.54
2018-07-25T09:54:52.930Z,947.52
2018-07-25T09:55:52.944Z,947.49
2018-07-25T09:56:52.962Z,947.48
2018-07-25T09:57:52.991Z,947.46
2018-07-25T09:58:53.032Z,947.46
2018-07-25T09:59:53.049Z,947.47
2018-07-25T10:00:53.108Z,947.52
2018-07-25T10:01:53.071Z,947.53
2018-07-25T10:02:53.091Z,947.45
2018-07-25T10:03:53.141Z,947.45
2018-07-25T10:04:53.131Z,947.44
2018-07-25T10:05:53.186Z,947.48
2018-07-25T10:06:53.167Z,947.48
2018-07-25T10:07:53.191Z,947.54
2018-07-25T10:08:53.214Z,947.50
2018-07-25T10:09:53.230Z,947.52
2018-07-25T10:10:53.248Z,947.51
2018-07-25T10:11:53.272Z,947.48
2018-07-25T10:12:53.291Z,947.51
2018-07-25T10:13:53.325Z,947.46
2018-07-25T10:14:53.363Z,947.46
2018-07-25T10:15:53.348Z,947.42
2018-07-25T10:16:53.372Z,947.42
2018-07-25T10:17:53.392Z,947.39
2018-07-25T10:18:53.417Z,947.39
2018-07-25T10:19:53.436Z,947.40
2018-07-25T10:20:53.499Z,947.32
2018-07-25T10:21:53.496Z,947.32
2018-07-25T10:22:53.491Z,947.37
2018-07-25T10:23:53.523Z,947.34
2018-07-25T10:24:53.532Z,947.38
2018-07-25T10:25:53.573Z,947.37
2018-07-25T10:26:53.611Z,947.35
2018-07-25T10:27:53.621Z,947.40
2018-07-25T10:28:53.632Z,947.37
2018-07-25T10:29:53.676Z,947.32
2018-07-25T10:30:53.678Z,947.34
2018-07-25T10:31:53.671Z,947.34
2018-07-25T10:32:53.743Z,947.29
2018-07-25T10:33:53.710Z,947.26
2018-07-25T10:34:53.726Z,947.27
2018-07-25T10:35:53.752Z,947.27
2018-07-25T10:36:53.770Z,947.25
2018-07-25T10:37:53.786Z,947.30
2018-07-25T10:38:53.834Z,947.32
2018-07-25T10:39:53.830Z,947.30
2018-07-25T10:40:53.846Z,947.25
2018-07-25T10:41:53.868Z,947.28
2018-07-25T10:42:53.884Z,947.24
2018-07-25T10:43:53.906Z,947.24
2018-07-25T10:44:53.929Z,947.19
2018-07-25T10:45:54.029Z,947.25
2018-07-25T10:46:53.962Z,947.17
2018-07-25T10:47:53.983Z,947.21
2018-07-25T10:48:54.055Z,947.20
2018-07-25T10:49:54.021Z,947.20
2018-07-25T10:50:54.044Z,947.20
2018-07-25T10:51:54.057Z,947.22
2018-07-25T10:52:54.076Z,947.19
2018-07-25T10:53:54.101Z,947.18
2018-07-25T10:54:54.118Z,947.15
2018-07-25T10:55:54.186Z,947.16
2018-07-25T10:56:54.154Z,947.18
2018-07-25T10:57:54.184Z,947.14
2018-07-25T10:58:54.191Z,947.05
2018-07-25T10:59:54.209Z,947.01
2018-07-25T11:00:54.226Z,947.04
2018-07-25T11:01:54.247Z,947.04
2018-07-25T11:02:54.255Z,947.14
2018-07-25T11:03:54.329Z,947.09
2018-07-25T11:04:54.302Z,947.09
2018-07-25T11:05:54.317Z,947.07
2018-07-25T11:06:54.334Z,947.11
2018-07-25T11:07:54.348Z,947.12
2018-07-25T11:08:54.365Z,947.10
2018-07-25T11:09:54.389Z,947.05
2018-07-25T11:10:54.399Z,947.03
2018-07-25T11:11:54.416Z,946.98
2018-07-25T11:12:54.463Z,946.95
2018-07-25T11:13:54.481Z,947.02
2018-07-25T11:14:54.515Z,946.97
2018-07-25T11:15:54.541Z,946.94
2018-07-25T11:16:54.557Z,946.91
2018-07-25T11:17:54.575Z,946.87
2018-07-25T11:18:54.541Z,946.86
2018-07-25T11:19:54.564Z,946.90
2018-07-25T11:20:54.572Z,946.94
2018-07-25T11:21:54.598Z,946.93
2018-07-25T11:22:54.684Z,946.94
2018-07-25T11:23:54.636Z,946.92
2018-07-25T11:24:54.651Z,946.88
2018-07-25T11:25:54.670Z,946.86
2018-07-25T11:26:54.728Z,946.88
2018-07-25T11:27:54.726Z,946.88
2018-07-25T11:28:54.741Z,946.90
2018-07-25T11:29:54.775Z,946.85
2018-07-25T11:30:54.799Z,946.88
2018-07-25T11:31:54.807Z,946.84
2018-07-25T11:32:54.892Z,946.81
2018-07-25T11:33:54.869Z,946.84
2018-07-25T11:34:54.887Z,946.85
2018-07-25T11:35:54.859Z,946.80
2018-07-25T11:36:54.874Z,946.83
2018-07-25T11:37:54.894Z,946.82
2018-07-25T11:38:54.917Z,946.80
2018-07-25T11:39:54.933Z,946.82
2018-07-25T11:40:54.952Z,946.85
2018-07-25T11:41:54.973Z,946.84
2018-07-25T11:42:54.985Z,946.84
2018-07-25T11:43:55.005Z,946.79
2018-07-25T11:44:55.026Z,946.71
2018-07-25T11:45:55.044Z,946.74
2018-07-25T11:46:55.057Z,946.73
2018-07-25T11:47:55.079Z,946.76
2018-07-25T11:48:55.096Z,946.77
2018-07-25T11:49:55.117Z,946.77
2018-07-25T11:50:55.129Z,946.81
2018-07-25T11:51:55.148Z,946.77
2018-07-25T11:52:55.163Z,946.81
2018-07-25T11:53:55.181Z,946.76
2018-07-25T11:54:55.192Z,946.75
2018-07-25T11:55:55.214Z,946.69
2018-07-25T11:56:55.235Z,946.74
2018-07-25T11:57:55.249Z,946.76
2018-07-25T11:58:55.257Z,946.74
2018-07-25T11:59:55.286Z,946.72
2018-07-25T12:00:55.358Z,946.70
2018-07-25T12:01:55.322Z,946.69
2018-07-25T12:02:55.341Z,946.73
2018-07-25T12:03:55.354Z,946.71
2018-07-25T12:04:55.379Z,946.73
2018-07-25T12:05:55.404Z,946.67
2018-07-25T12:06:55.407Z,946.69
2018-07-25T12:07:55.427Z,946.66
2018-07-25T12:08:55.446Z,946.67
2018-07-25T12:09:55.465Z,946.66
2018-07-25T12:10:55.478Z,946.70
2018-07-25T12:11:55.496Z,946.67
2018-07-25T12:12:55.532Z,946.66
2018-07-25T12:13:55.530Z,946.62
2018-07-25T12:14:55.563Z,946.63
2018-07-25T12:15:55.567Z,946.62
2018-07-25T12:16:55.591Z,946.60
2018-07-25T12:17:55.613Z,946.62
2018-07-25T12:18:55.620Z,946.62
2018-07-25T12:19:55.640Z,946.62
2018-07-25T12:20:55.665Z,946.62
2018-07-25T12:21:55.699Z,946.61
2018-07-25T12:22:55.690Z,946.58
2018-07-25T12:23:55.725Z,946.59
2018-07-25T12:24:55.731Z,946.61
2018-07-25T12:25:55.745Z,946.59
2018-07-25T12:26:55.816Z,946.57
2018-07-25T12:27:55.784Z,946.66
2018-07-25T12:28:55.797Z,946.58
2018-07-25T12:29:55.817Z,946.60
2018-07-25T12:30:55.835Z,946.57
2018-07-25T12:31:55.852Z,946.60
2018-07-25T12:32:55.870Z,946.56
2018-07-25T12:33:55.888Z,946.56
2018-07-25T12:34:55.905Z,946.55
2018-07-25T12:35:55.925Z,946.53
2018-07-25T12:36:55.945Z,946.52
2018-07-25T12:37:55.959Z,946.51
2018-07-25T12:38:55.978Z,946.55
2018-07-25T12:39:55.994Z,946.53
2018-07-25T12:40:56.010Z,946.54
2018-07-25T12:41:56.030Z,946.51
2018-07-25T12:42:56.143Z,946.48
2018-07-25T12:43:56.062Z,946.44
2018-07-25T12:44:56.076Z,946.45
2018-07-25T12:45:56.089Z,946.44
2018-07-25T12:46:56.106Z,946.41
2018-07-25T12:47:56.119Z,946.44
2018-07-25T12:48:56.133Z,946.38
2018-07-25T12:49:56.146Z,946.40
2018-07-25T12:50:56.155Z,946.43
2018-07-25T12:51:56.171Z,946.43
2018-07-25T12:52:56.180Z,946.41
2018-07-25T12:53:56.281Z,946.40
2018-07-25T12:54:56.206Z,946.34
2018-07-25T12:55:56.210Z,946.39
2018-07-25T12:56:56.226Z,946.35
2018-07-25T12:57:56.263Z,946.29
2018-07-25T12:58:56.240Z,946.29
2018-07-25T12:59:56.261Z,946.30
2018-07-25T13:00:56.264Z,946.29
2018-07-25T13:01:56.283Z,946.26
2018-07-25T13:02:56.329Z,946.27
2018-07-25T13:03:56.292Z,946.28
2018-07-25T13:04:56.303Z,946.35
2018-07-25T13:05:56.314Z,946.27
2018-07-25T13:06:56.319Z,946.32
2018-07-25T13:07:56.326Z,946.30
2018-07-25T13:08:56.336Z,946.27
2018-07-25T13:09:56.349Z,946.25
2018-07-25T13:10:56.353Z,946.22
2018-07-25T13:11:56.364Z,946.22
2018-07-25T13:12:56.370Z,946.19
2018-07-25T13:13:56.378Z,946.16
2018-07-25T13:14:56.385Z,946.18
2018-07-25T13:15:56.431Z,946.20
2018-07-25T13:16:56.401Z,946.22
2018-07-25T13:17:56.412Z,946.22
2018-07-25T13:18:56.416Z,946.21
2018-07-25T13:19:56.424Z,946.22
2018-07-25T13:20:56.434Z,946.18